Kittery, ME

8:56 AM EDT on May 03, 2015 (GMT -0400)
KMEKITTE4 | | Change Station
CLOSE
Current Station
Personal Weather Station
Location: Kittery, ME
Elevation: 59 ft
Nearby Weather Stations

Elev 59 ft 43.09 °N, 70.73 °W | Updated 4 seconds ago

Partly Cloudy
Partly Cloudy
63.3 °F
Feels Like 63.3 °F
N
1.0
Wind Variable Wind from South
Gusts 0.0 mph

Today
High -- | Low -- °F
--% Chance of Precip.
Yesterday
High -- | Low -- °F
Precip. -- in
5:34 AM 7:46 PM
Full, 100% visible
Pressure 30.05 in
Visibility 5.0 miles
Clouds Few 200 ft
Few 11000 ft
Scattered Clouds 20000 ft
Dew Point 37 °F
Humidity 37%
Rainfall 0.00 in
Snow Depth Not available.
UV 2 out of 12
Pollen 10.80 out of 12
Air Quality Not available.
Flu Activity Regional
METAR KPSM 031158Z 16001KT 5SM BR FEW002 FEW110 SCT200 08/07 A3004 RMK AO2A SLP176 T00750069 10075 20038 52016

More Conditions Fewer Conditions

Pressure 30.05 in
Visibility 5.0 miles
Clouds Few 200 ft
Few 11000 ft
Scattered Clouds 20000 ft
Dew Point 37 °F
Humidity 37%
Rainfall 0.00 in
Snow Depth Not available.
UV 2 out of 12
Pollen 10.80 out of 12
Air Quality Not available.
Flu Activity Regional
METAR KPSM 031158Z 16001KT 5SM BR FEW002 FEW110 SCT200 08/07 A3004 RMK AO2A SLP176 T00750069 10075 20038 52016

More Conditions Fewer Conditions

Nepal has a long way to go to dig out and rebuild from a devastating earthquake. We have teamed up with several charities and organizations to make contributing to the relief effort as easy as possible.
How you can help: Portlight Strategies | Red Cross

10-Day Weather Forecast

Almanac

Astronomy

May. 03, 2015 Rise Set
Actual Time
Civil Twilight
Nautical Twilight
Astronomical Twilight
Moon
Length of Visible Light
Length of Day
Tomorrow will be .
, % of the Moon is Illuminated

Today's Extremes

State Highs State Lows

Community

WunderPhotos

Upload Photos

1,818,200 photos uploaded!

WunderBlogs® & News

Nearby

Air Quality

  Air Quality AQ Index Pollutant
Not available.

Snow Depth

Station Depth Elevation

Earthquake Activity

City Distance Mag. Time & Date
Minimum magnitude displayed is 2.5.

Coastal Water Temperatures

Place Temperature

Stations

Nearby Weather Stations

Station Location Temp. Windchill Dew Point Humidity Wind Precip. Elev Updated Type